sensor_id;sensor_type;location;lat;lon;timestamp;pressure;altitude;pressure_sealevel;temperature;humidity
78064;BME280;67429;51.596;-3.264;2023-02-28T00:00:18;101204.90;;;2.76;53.43
78064;BME280;67429;51.596;-3.264;2023-02-28T00:02:45;101207.16;;;2.90;52.90
78064;BME280;67429;51.596;-3.264;2023-02-28T00:05:11;101209.83;;;2.90;53.22
78064;BME280;67429;51.596;-3.264;2023-02-28T00:07:36;101215.24;;;2.20;54.24
78064;BME280;67429;51.596;-3.264;2023-02-28T00:10:01;101217.14;;;1.94;55.91
78064;BME280;67429;51.596;-3.264;2023-02-28T00:12:27;101221.44;;;1.88;55.46
78064;BME280;67429;51.596;-3.264;2023-02-28T00:14:53;101223.30;;;1.85;56.76
78064;BME280;67429;51.596;-3.264;2023-02-28T00:17:19;101225.13;;;1.18;58.49
78064;BME280;67429;51.596;-3.264;2023-02-28T00:19:44;101224.83;;;2.29;56.96
78064;BME280;67429;51.596;-3.264;2023-02-28T00:22:10;101226.03;;;3.14;54.16
78064;BME280;67429;51.596;-3.264;2023-02-28T00:24:36;101233.74;;;3.15;53.27
78064;BME280;67429;51.596;-3.264;2023-02-28T00:27:02;101229.66;;;3.85;51.62
78064;BME280;67429;51.596;-3.264;2023-02-28T00:29:27;101225.07;;;3.24;52.61
78064;BME280;67429;51.596;-3.264;2023-02-28T00:31:53;101229.88;;;1.96;55.36
78064;BME280;67429;51.596;-3.264;2023-02-28T00:34:19;101223.74;;;2.68;55.59
78064;BME280;67429;51.596;-3.264;2023-02-28T00:36:45;101228.20;;;2.60;55.63
78064;BME280;67429;51.596;-3.264;2023-02-28T00:39:11;101230.70;;;2.41;56.04
78064;BME280;67429;51.596;-3.264;2023-02-28T00:41:36;101227.27;;;3.28;53.98
78064;BME280;67429;51.596;-3.264;2023-02-28T00:44:02;101226.85;;;4.10;51.60
78064;BME280;67429;51.596;-3.264;2023-02-28T00:46:28;101223.30;;;1.74;56.07
78064;BME280;67429;51.596;-3.264;2023-02-28T00:48:54;101223.63;;;2.21;55.46
78064;BME280;67429;51.596;-3.264;2023-02-28T00:51:20;101228.13;;;2.03;55.62
78064;BME280;67429;51.596;-3.264;2023-02-28T00:53:46;101228.09;;;1.73;57.18
78064;BME280;67429;51.596;-3.264;2023-02-28T00:56:11;101225.67;;;1.85;57.48
78064;BME280;67429;51.596;-3.264;2023-02-28T00:58:37;101228.09;;;1.87;56.89
78064;BME280;67429;51.596;-3.264;2023-02-28T01:01:03;101229.30;;;2.12;55.43
78064;BME280;67429;51.596;-3.264;2023-02-28T01:03:29;101227.84;;;2.77;54.08
78064;BME280;67429;51.596;-3.264;2023-02-28T01:05:54;101231.27;;;2.07;55.02
78064;BME280;67429;51.596;-3.264;2023-02-28T01:08:21;101230.95;;;1.81;55.74
78064;BME280;67429;51.596;-3.264;2023-02-28T01:10:46;101235.41;;;1.94;55.47
78064;BME280;67429;51.596;-3.264;2023-02-28T01:13:12;101230.14;;;2.01;56.50
78064;BME280;67429;51.596;-3.264;2023-02-28T01:15:38;101234.92;;;1.87;55.54
78064;BME280;67429;51.596;-3.264;2023-02-28T01:18:04;101234.57;;;2.65;54.25
78064;BME280;67429;51.596;-3.264;2023-02-28T01:20:29;101230.22;;;1.49;56.59
78064;BME280;67429;51.596;-3.264;2023-02-28T01:22:55;101228.23;;;1.64;55.94
78064;BME280;67429;51.596;-3.264;2023-02-28T01:25:21;101232.59;;;1.59;56.45
78064;BME280;67429;51.596;-3.264;2023-02-28T01:27:47;101237.61;;;1.82;56.07
78064;BME280;67429;51.596;-3.264;2023-02-28T01:30:13;101239.93;;;1.97;56.04
78064;BME280;67429;51.596;-3.264;2023-02-28T01:32:38;101243.41;;;1.46;57.21
78064;BME280;67429;51.596;-3.264;2023-02-28T01:35:05;101241.13;;;1.24;57.21
78064;BME280;67429;51.596;-3.264;2023-02-28T01:37:30;101241.98;;;1.74;56.79
78064;BME280;67429;51.596;-3.264;2023-02-28T01:39:57;101238.69;;;2.01;56.06
78064;BME280;67429;51.596;-3.264;2023-02-28T01:42:22;101240.42;;;1.92;55.31
78064;BME280;67429;51.596;-3.264;2023-02-28T01:45:01;101239.76;;;1.51;56.51
78064;BME280;67429;51.596;-3.264;2023-02-28T01:47:14;101238.88;;;1.43;57.24
78064;BME280;67429;51.596;-3.264;2023-02-28T01:49:39;101238.74;;;2.46;54.19
78064;BME280;67429;51.596;-3.264;2023-02-28T01:52:05;101229.93;;;2.84;53.42
78064;BME280;67429;51.596;-3.264;2023-02-28T01:54:34;101232.80;;;2.27;54.61
78064;BME280;67429;51.596;-3.264;2023-02-28T01:57:02;101229.23;;;2.74;53.86
78064;BME280;67429;51.596;-3.264;2023-02-28T01:59:27;101229.28;;;2.73;53.29
78064;BME280;67429;51.596;-3.264;2023-02-28T02:01:48;101232.73;;;2.18;54.50
78064;BME280;67429;51.596;-3.264;2023-02-28T02:04:14;101231.65;;;2.87;53.58
78064;BME280;67429;51.596;-3.264;2023-02-28T02:06:43;101232.91;;;3.46;51.83
78064;BME280;67429;51.596;-3.264;2023-02-28T02:09:06;101233.74;;;3.71;51.22
78064;BME280;67429;51.596;-3.264;2023-02-28T02:11:32;101237.17;;;2.68;52.51
78064;BME280;67429;51.596;-3.264;2023-02-28T02:16:33;101238.50;;;3.82;50.56
78064;BME280;67429;51.596;-3.264;2023-02-28T02:18:53;101235.33;;;3.24;51.46
78064;BME280;67429;51.596;-3.264;2023-02-28T02:23:58;101242.23;;;3.10;52.06
78064;BME280;67429;51.596;-3.264;2023-02-28T02:26:19;101237.48;;;2.94;52.53
78064;BME280;67429;51.596;-3.264;2023-02-28T02:35:53;101240.75;;;3.76;49.44
78064;BME280;67429;51.596;-3.264;2023-02-28T02:38:19;101238.02;;;2.88;51.07
78064;BME280;67429;51.596;-3.264;2023-02-28T02:40:47;101232.82;;;3.86;49.84
78064;BME280;67429;51.596;-3.264;2023-02-28T02:43:10;101229.75;;;3.86;49.39
78064;BME280;67429;51.596;-3.264;2023-02-28T02:45:36;101226.88;;;3.88;49.97
78064;BME280;67429;51.596;-3.264;2023-02-28T02:47:59;101227.86;;;4.11;48.69
78064;BME280;67429;51.596;-3.264;2023-02-28T02:50:29;101229.57;;;4.18;48.39
78064;BME280;67429;51.596;-3.264;2023-02-28T02:52:54;101234.73;;;4.71;47.66
78064;BME280;67429;51.596;-3.264;2023-02-28T02:55:18;101230.42;;;4.57;47.87
78064;BME280;67429;51.596;-3.264;2023-02-28T02:57:46;101228.48;;;4.93;47.18
78064;BME280;67429;51.596;-3.264;2023-02-28T03:00:10;101225.02;;;3.80;49.32
78064;BME280;67429;51.596;-3.264;2023-02-28T03:02:34;101227.56;;;4.29;48.81
78064;BME280;67429;51.596;-3.264;2023-02-28T03:05:01;101224.53;;;3.29;51.07
78064;BME280;67429;51.596;-3.264;2023-02-28T03:07:25;101223.08;;;2.75;52.95
78064;BME280;67429;51.596;-3.264;2023-02-28T03:09:51;101222.50;;;3.74;51.18
78064;BME280;67429;51.596;-3.264;2023-02-28T03:12:16;101219.81;;;3.46;51.32
78064;BME280;67429;51.596;-3.264;2023-02-28T03:14:51;101217.36;;;3.07;51.93
78064;BME280;67429;51.596;-3.264;2023-02-28T03:17:19;101219.63;;;3.56;51.06
78064;BME280;67429;51.596;-3.264;2023-02-28T03:19:44;101223.08;;;4.67;48.43
78064;BME280;67429;51.596;-3.264;2023-02-28T03:22:12;101221.02;;;5.00;47.58
78064;BME280;67429;51.596;-3.264;2023-02-28T03:24:30;101217.54;;;5.12;47.50
78064;BME280;67429;51.596;-3.264;2023-02-28T03:26:55;101217.59;;;5.09;46.74
78064;BME280;67429;51.596;-3.264;2023-02-28T03:29:22;101216.09;;;4.64;48.11
78064;BME280;67429;51.596;-3.264;2023-02-28T03:31:47;101213.71;;;3.93;49.95
78064;BME280;67429;51.596;-3.264;2023-02-28T03:34:15;101209.50;;;3.80;50.19
78064;BME280;67429;51.596;-3.264;2023-02-28T03:36:37;101213.92;;;3.62;50.05
78064;BME280;67429;51.596;-3.264;2023-02-28T03:39:04;101210.26;;;3.46;50.97
78064;BME280;67429;51.596;-3.264;2023-02-28T03:41:30;101209.81;;;3.20;51.47
78064;BME280;67429;51.596;-3.264;2023-02-28T03:43:55;101210.90;;;3.35;51.79
78064;BME280;67429;51.596;-3.264;2023-02-28T03:46:20;101212.51;;;3.31;51.76
78064;BME280;67429;51.596;-3.264;2023-02-28T03:48:45;101209.03;;;2.93;52.83
78064;BME280;67429;51.596;-3.264;2023-02-28T03:51:10;101209.16;;;3.64;52.00
78064;BME280;67429;51.596;-3.264;2023-02-28T03:53:37;101208.81;;;3.61;51.90
78064;BME280;67429;51.596;-3.264;2023-02-28T03:56:06;101210.88;;;3.68;52.03
78064;BME280;67429;51.596;-3.264;2023-02-28T03:58:30;101209.12;;;3.25;52.33
78064;BME280;67429;51.596;-3.264;2023-02-28T04:00:56;101209.65;;;3.39;51.75
78064;BME280;67429;51.596;-3.264;2023-02-28T04:03:18;101208.49;;;3.69;50.93
78064;BME280;67429;51.596;-3.264;2023-02-28T04:05:49;101207.30;;;4.18;49.97
78064;BME280;67429;51.596;-3.264;2023-02-28T04:08:09;101212.41;;;4.36;49.23
78064;BME280;67429;51.596;-3.264;2023-02-28T04:10:35;101212.25;;;3.85;50.40
78064;BME280;67429;51.596;-3.264;2023-02-28T04:13:01;101211.54;;;3.44;52.66
78064;BME280;67429;51.596;-3.264;2023-02-28T04:15:27;101219.42;;;3.02;53.80
78064;BME280;67429;51.596;-3.264;2023-02-28T04:17:53;101223.36;;;3.77;51.86
78064;BME280;67429;51.596;-3.264;2023-02-28T04:20:18;101226.70;;;4.42;50.89
78064;BME280;67429;51.596;-3.264;2023-02-28T04:22:44;101223.24;;;4.71;49.57
78064;BME280;67429;51.596;-3.264;2023-02-28T04:25:10;101229.57;;;4.55;49.64
78064;BME280;67429;51.596;-3.264;2023-02-28T04:27:35;101232.93;;;5.22;48.16
78064;BME280;67429;51.596;-3.264;2023-02-28T04:30:01;101232.19;;;4.66;49.32
78064;BME280;67429;51.596;-3.264;2023-02-28T04:32:27;101228.90;;;4.99;48.96
78064;BME280;67429;51.596;-3.264;2023-02-28T04:34:53;101229.99;;;5.54;48.10
78064;BME280;67429;51.596;-3.264;2023-02-28T04:37:19;101229.20;;;5.33;47.83
78064;BME280;67429;51.596;-3.264;2023-02-28T04:39:44;101221.08;;;6.18;46.47
78064;BME280;67429;51.596;-3.264;2023-02-28T04:42:11;101221.26;;;6.27;45.73
78064;BME280;67429;51.596;-3.264;2023-02-28T04:44:36;101222.32;;;6.36;45.37
78064;BME280;67429;51.596;-3.264;2023-02-28T04:47:01;101224.27;;;6.41;45.36
78064;BME280;67429;51.596;-3.264;2023-02-28T04:49:27;101229.60;;;6.44;45.47
78064;BME280;67429;51.596;-3.264;2023-02-28T04:51:53;101233.67;;;6.46;45.71
78064;BME280;67429;51.596;-3.264;2023-02-28T04:54:18;101241.20;;;6.36;45.59
78064;BME280;67429;51.596;-3.264;2023-02-28T04:56:44;101242.59;;;6.43;45.63
78064;BME280;67429;51.596;-3.264;2023-02-28T04:59:10;101247.34;;;6.43;45.90
78064;BME280;67429;51.596;-3.264;2023-02-28T05:01:36;101252.76;;;5.82;46.30
78064;BME280;67429;51.596;-3.264;2023-02-28T05:04:03;101254.72;;;5.97;46.07
78064;BME280;67429;51.596;-3.264;2023-02-28T05:06:29;101250.26;;;6.47;46.41
78064;BME280;67429;51.596;-3.264;2023-02-28T05:08:53;101249.30;;;6.20;46.48
78064;BME280;67429;51.596;-3.264;2023-02-28T05:11:20;101248.55;;;5.37;48.14
78064;BME280;67429;51.596;-3.264;2023-02-28T05:13:45;101248.02;;;5.56;48.41
78064;BME280;67429;51.596;-3.264;2023-02-28T05:16:10;101249.90;;;5.09;49.65
78064;BME280;67429;51.596;-3.264;2023-02-28T05:18:36;101251.49;;;5.41;49.60
78064;BME280;67429;51.596;-3.264;2023-02-28T05:21:02;101251.76;;;5.57;49.16
78064;BME280;67429;51.596;-3.264;2023-02-28T05:23:28;101249.78;;;5.54;49.28
78064;BME280;67429;51.596;-3.264;2023-02-28T05:25:54;101250.35;;;5.28;49.75
78064;BME280;67429;51.596;-3.264;2023-02-28T05:28:20;101255.42;;;4.78;51.06
78064;BME280;67429;51.596;-3.264;2023-02-28T05:30:46;101257.29;;;3.67;53.44
78064;BME280;67429;51.596;-3.264;2023-02-28T05:33:11;101259.81;;;4.08;53.03
78064;BME280;67429;51.596;-3.264;2023-02-28T05:35:38;101259.16;;;3.20;55.08
78064;BME280;67429;51.596;-3.264;2023-02-28T05:38:02;101258.12;;;2.87;56.43
78064;BME280;67429;51.596;-3.264;2023-02-28T05:40:28;101260.36;;;3.28;56.90
78064;BME280;67429;51.596;-3.264;2023-02-28T05:42:54;101272.08;;;3.27;56.49
78064;BME280;67429;51.596;-3.264;2023-02-28T05:45:20;101271.28;;;2.98;56.75
78064;BME280;67429;51.596;-3.264;2023-02-28T05:47:46;101266.97;;;2.69;58.03
78064;BME280;67429;51.596;-3.264;2023-02-28T05:50:12;101260.49;;;4.18;55.16
78064;BME280;67429;51.596;-3.264;2023-02-28T05:52:37;101260.62;;;3.58;56.91
78064;BME280;67429;51.596;-3.264;2023-02-28T05:55:04;101266.14;;;2.38;59.80
78064;BME280;67429;51.596;-3.264;2023-02-28T05:57:29;101266.19;;;2.19;60.16
78064;BME280;67429;51.596;-3.264;2023-02-28T05:59:55;101268.85;;;2.72;59.06
78064;BME280;67429;51.596;-3.264;2023-02-28T06:02:21;101265.85;;;3.48;57.47
78064;BME280;67429;51.596;-3.264;2023-02-28T06:04:47;101269.98;;;3.68;56.78
78064;BME280;67429;51.596;-3.264;2023-02-28T06:07:12;101273.79;;;2.30;59.37
78064;BME280;67429;51.596;-3.264;2023-02-28T06:09:38;101274.90;;;3.51;57.59
78064;BME280;67429;51.596;-3.264;2023-02-28T06:12:05;101277.28;;;3.53;57.14
78064;BME280;67429;51.596;-3.264;2023-02-28T06:14:30;101280.19;;;4.17;55.49
78064;BME280;67429;51.596;-3.264;2023-02-28T06:16:55;101284.17;;;4.71;53.97
78064;BME280;67429;51.596;-3.264;2023-02-28T06:19:21;101278.89;;;4.27;54.69
78064;BME280;67429;51.596;-3.264;2023-02-28T06:21:49;101283.72;;;4.51;53.96
78064;BME280;67429;51.596;-3.264;2023-02-28T06:24:13;101284.21;;;3.45;56.51
78064;BME280;67429;51.596;-3.264;2023-02-28T06:26:39;101285.05;;;3.02;57.75
78064;BME280;67429;51.596;-3.264;2023-02-28T06:29:04;101285.47;;;3.75;55.94
78064;BME280;67429;51.596;-3.264;2023-02-28T06:31:30;101284.91;;;3.91;55.33
78064;BME280;67429;51.596;-3.264;2023-02-28T06:33:57;101286.57;;;4.42;54.85
78064;BME280;67429;51.596;-3.264;2023-02-28T06:36:22;101283.60;;;3.61;55.76
78064;BME280;67429;51.596;-3.264;2023-02-28T06:38:48;101286.36;;;3.62;56.76
78064;BME280;67429;51.596;-3.264;2023-02-28T06:41:14;101287.06;;;3.36;57.26
78064;BME280;67429;51.596;-3.264;2023-02-28T06:43:42;101282.37;;;3.57;56.69
78064;BME280;67429;51.596;-3.264;2023-02-28T06:46:08;101282.82;;;2.35;59.32
78064;BME280;67429;51.596;-3.264;2023-02-28T06:48:31;101279.12;;;3.72;56.83
78064;BME280;67429;51.596;-3.264;2023-02-28T06:51:02;101281.64;;;3.80;56.22
78064;BME280;67429;51.596;-3.264;2023-02-28T06:53:22;101283.22;;;4.18;55.06
78064;BME280;67429;51.596;-3.264;2023-02-28T06:55:48;101283.32;;;4.43;54.46
78064;BME280;67429;51.596;-3.264;2023-02-28T06:58:14;101283.75;;;4.85;54.13
78064;BME280;67429;51.596;-3.264;2023-02-28T07:00:40;101281.09;;;4.48;54.07
78064;BME280;67429;51.596;-3.264;2023-02-28T07:03:06;101284.09;;;4.53;54.07
78064;BME280;67429;51.596;-3.264;2023-02-28T07:05:31;101287.77;;;4.93;53.27
78064;BME280;67429;51.596;-3.264;2023-02-28T07:07:57;101292.93;;;5.19;52.71
78064;BME280;67429;51.596;-3.264;2023-02-28T07:10:23;101295.79;;;5.28;52.46
78064;BME280;67429;51.596;-3.264;2023-02-28T07:12:49;101298.46;;;4.67;52.78
78064;BME280;67429;51.596;-3.264;2023-02-28T07:15:15;101296.16;;;5.40;52.66
78064;BME280;67429;51.596;-3.264;2023-02-28T07:17:40;101303.56;;;5.50;52.14
78064;BME280;67429;51.596;-3.264;2023-02-28T07:20:07;101306.41;;;5.43;51.70
78064;BME280;67429;51.596;-3.264;2023-02-28T07:22:32;101308.97;;;5.20;52.58
78064;BME280;67429;51.596;-3.264;2023-02-28T07:24:58;101305.51;;;5.34;52.50
78064;BME280;67429;51.596;-3.264;2023-02-28T07:27:24;101305.36;;;6.02;51.56
78064;BME280;67429;51.596;-3.264;2023-02-28T07:29:49;101305.04;;;5.04;52.16
78064;BME280;67429;51.596;-3.264;2023-02-28T07:32:15;101302.80;;;5.41;51.70
78064;BME280;67429;51.596;-3.264;2023-02-28T07:34:41;101308.33;;;5.42;51.88
78064;BME280;67429;51.596;-3.264;2023-02-28T07:37:07;101307.25;;;5.65;51.96
78064;BME280;67429;51.596;-3.264;2023-02-28T07:39:32;101313.22;;;5.32;52.40
78064;BME280;67429;51.596;-3.264;2023-02-28T07:41:58;101313.28;;;4.84;53.30
78064;BME280;67429;51.596;-3.264;2023-02-28T07:44:24;101314.19;;;5.42;53.07
78064;BME280;67429;51.596;-3.264;2023-02-28T07:46:50;101316.43;;;4.84;53.18
78064;BME280;67429;51.596;-3.264;2023-02-28T07:49:16;101315.05;;;4.54;54.00
78064;BME280;67429;51.596;-3.264;2023-02-28T07:51:41;101317.31;;;5.16;53.34
78064;BME280;67429;51.596;-3.264;2023-02-28T07:54:06;101319.78;;;5.15;53.24
78064;BME280;67429;51.596;-3.264;2023-02-28T07:56:33;101321.10;;;5.74;52.91
78064;BME280;67429;51.596;-3.264;2023-02-28T07:58:58;101327.62;;;5.26;53.15
78064;BME280;67429;51.596;-3.264;2023-02-28T08:01:24;101321.79;;;4.78;53.49
78064;BME280;67429;51.596;-3.264;2023-02-28T08:03:50;101326.17;;;4.91;53.17
78064;BME280;67429;51.596;-3.264;2023-02-28T08:06:19;101320.92;;;4.97;53.65
78064;BME280;67429;51.596;-3.264;2023-02-28T08:08:41;101315.22;;;4.15;54.96
78064;BME280;67429;51.596;-3.264;2023-02-28T08:11:06;101312.57;;;3.70;56.31
78064;BME280;67429;51.596;-3.264;2023-02-28T08:13:32;101314.37;;;4.18;56.05
78064;BME280;67429;51.596;-3.264;2023-02-28T08:15:57;101311.04;;;2.84;58.29
78064;BME280;67429;51.596;-3.264;2023-02-28T08:18:23;101311.74;;;3.14;58.06
78064;BME280;67429;51.596;-3.264;2023-02-28T08:20:48;101319.87;;;3.57;57.36
78064;BME280;67429;51.596;-3.264;2023-02-28T08:23:13;101316.99;;;3.85;56.66
78064;BME280;67429;51.596;-3.264;2023-02-28T08:25:38;101315.83;;;3.09;58.49
78064;BME280;67429;51.596;-3.264;2023-02-28T08:28:04;101315.51;;;3.08;60.36
78064;BME280;67429;51.596;-3.264;2023-02-28T08:30:29;101314.25;;;3.30;60.40
78064;BME280;67429;51.596;-3.264;2023-02-28T08:32:55;101308.29;;;3.23;59.58
78064;BME280;67429;51.596;-3.264;2023-02-28T08:35:21;101311.32;;;3.13;59.08
78064;BME280;67429;51.596;-3.264;2023-02-28T08:37:48;101321.04;;;3.05;59.29
78064;BME280;67429;51.596;-3.264;2023-02-28T08:40:12;101316.73;;;4.11;57.08
78064;BME280;67429;51.596;-3.264;2023-02-28T08:42:37;101322.90;;;4.38;57.24
78064;BME280;67429;51.596;-3.264;2023-02-28T08:45:03;101324.64;;;3.86;56.93
78064;BME280;67429;51.596;-3.264;2023-02-28T08:47:28;101335.13;;;3.82;57.13
78064;BME280;67429;51.596;-3.264;2023-02-28T08:49:54;101326.48;;;3.51;58.25
78064;BME280;67429;51.596;-3.264;2023-02-28T08:52:20;101332.20;;;2.62;59.51
78064;BME280;67429;51.596;-3.264;2023-02-28T08:54:46;101330.92;;;2.72;60.15
78064;BME280;67429;51.596;-3.264;2023-02-28T08:57:11;101329.06;;;2.35;62.24
78064;BME280;67429;51.596;-3.264;2023-02-28T08:59:37;101330.05;;;2.16;63.37
78064;BME280;67429;51.596;-3.264;2023-02-28T09:02:02;101330.94;;;1.96;63.79
78064;BME280;67429;51.596;-3.264;2023-02-28T09:04:28;101330.77;;;1.71;63.74
78064;BME280;67429;51.596;-3.264;2023-02-28T09:06:54;101322.18;;;1.94;62.52
78064;BME280;67429;51.596;-3.264;2023-02-28T09:09:20;101327.78;;;1.56;64.16
78064;BME280;67429;51.596;-3.264;2023-02-28T09:11:46;101326.67;;;1.75;63.74
78064;BME280;67429;51.596;-3.264;2023-02-28T09:14:11;101321.65;;;1.99;63.92
78064;BME280;67429;51.596;-3.264;2023-02-28T09:16:37;101317.97;;;2.71;61.92
78064;BME280;67429;51.596;-3.264;2023-02-28T09:19:03;101322.61;;;2.03;60.45
78064;BME280;67429;51.596;-3.264;2023-02-28T09:21:29;101324.23;;;1.78;61.72
78064;BME280;67429;51.596;-3.264;2023-02-28T09:23:54;101317.02;;;2.51;62.25
78064;BME280;67429;51.596;-3.264;2023-02-28T09:26:22;101321.61;;;1.93;63.20
78064;BME280;67429;51.596;-3.264;2023-02-28T09:28:46;101321.59;;;1.69;63.08
78064;BME280;67429;51.596;-3.264;2023-02-28T09:31:13;101320.77;;;1.74;63.94
78064;BME280;67429;51.596;-3.264;2023-02-28T09:33:37;101323.50;;;1.96;63.81
78064;BME280;67429;51.596;-3.264;2023-02-28T09:36:03;101323.41;;;1.93;62.85
78064;BME280;67429;51.596;-3.264;2023-02-28T09:38:28;101319.98;;;2.27;62.24
78064;BME280;67429;51.596;-3.264;2023-02-28T09:40:56;101322.21;;;1.85;62.97
78064;BME280;67429;51.596;-3.264;2023-02-28T09:43:22;101323.27;;;1.88;63.51
78064;BME280;67429;51.596;-3.264;2023-02-28T09:45:48;101316.59;;;1.75;63.80
78064;BME280;67429;51.596;-3.264;2023-02-28T09:48:14;101314.30;;;1.91;63.50
78064;BME280;67429;51.596;-3.264;2023-02-28T09:50:39;101314.15;;;1.57;63.62
78064;BME280;67429;51.596;-3.264;2023-02-28T09:53:10;101316.49;;;1.29;64.08
78064;BME280;67429;51.596;-3.264;2023-02-28T09:55:31;101314.92;;;1.34;63.78
78064;BME280;67429;51.596;-3.264;2023-02-28T09:57:54;101321.15;;;2.01;63.21
78064;BME280;67429;51.596;-3.264;2023-02-28T10:00:22;101319.97;;;2.01;64.32
78064;BME280;67429;51.596;-3.264;2023-02-28T10:02:52;101316.17;;;2.29;63.24
78064;BME280;67429;51.596;-3.264;2023-02-28T10:05:12;101317.72;;;2.36;62.31
78064;BME280;67429;51.596;-3.264;2023-02-28T10:07:50;101317.79;;;2.62;60.31
78064;BME280;67429;51.596;-3.264;2023-02-28T10:10:05;101315.68;;;3.29;57.63
78064;BME280;67429;51.596;-3.264;2023-02-28T10:12:28;101317.33;;;3.49;56.70
78064;BME280;67429;51.596;-3.264;2023-02-28T10:14:54;101324.47;;;4.69;53.50
78064;BME280;67429;51.596;-3.264;2023-02-28T10:17:22;101324.21;;;4.30;55.01
78064;BME280;67429;51.596;-3.264;2023-02-28T10:19:49;101320.60;;;3.94;55.37
78064;BME280;67429;51.596;-3.264;2023-02-28T10:22:14;101317.04;;;3.03;58.09
78064;BME280;67429;51.596;-3.264;2023-02-28T10:24:41;101323.30;;;3.18;57.26
78064;BME280;67429;51.596;-3.264;2023-02-28T10:27:13;101314.28;;;3.98;56.99
78064;BME280;67429;51.596;-3.264;2023-02-28T10:29:28;101319.99;;;2.97;58.01
78064;BME280;67429;51.596;-3.264;2023-02-28T10:31:53;101317.44;;;2.88;58.80
78064;BME280;67429;51.596;-3.264;2023-02-28T10:34:18;101310.71;;;3.55;57.66
78064;BME280;67429;51.596;-3.264;2023-02-28T10:36:44;101313.27;;;3.28;57.23
78064;BME280;67429;51.596;-3.264;2023-02-28T10:41:42;101302.39;;;4.17;56.12
78064;BME280;67429;51.596;-3.264;2023-02-28T10:44:13;101304.31;;;4.20;55.09
78064;BME280;67429;51.596;-3.264;2023-02-28T10:46:29;101302.53;;;5.43;52.83
78064;BME280;67429;51.596;-3.264;2023-02-28T10:49:02;101301.00;;;4.62;55.09
78064;BME280;67429;51.596;-3.264;2023-02-28T10:51:19;101302.24;;;4.94;53.31
78064;BME280;67429;51.596;-3.264;2023-02-28T10:53:48;101299.91;;;5.78;52.90
78064;BME280;67429;51.596;-3.264;2023-02-28T10:56:16;101305.64;;;5.92;51.94
78064;BME280;67429;51.596;-3.264;2023-02-28T10:58:44;101306.97;;;4.97;55.58
78064;BME280;67429;51.596;-3.264;2023-02-28T11:01:01;101314.40;;;5.24;53.37
78064;BME280;67429;51.596;-3.264;2023-02-28T11:03:32;101315.71;;;5.05;52.96
78064;BME280;67429;51.596;-3.264;2023-02-28T11:05:53;101315.39;;;5.37;52.19
78064;BME280;67429;51.596;-3.264;2023-02-28T11:08:19;101309.41;;;6.16;49.66
78064;BME280;67429;51.596;-3.264;2023-02-28T11:10:46;101311.56;;;6.06;50.22
78064;BME280;67429;51.596;-3.264;2023-02-28T11:13:17;101307.43;;;5.65;49.86
78064;BME280;67429;51.596;-3.264;2023-02-28T11:15:36;101310.60;;;5.91;50.43
78064;BME280;67429;51.596;-3.264;2023-02-28T11:18:14;101312.42;;;5.26;50.20
78064;BME280;67429;51.596;-3.264;2023-02-28T11:20:29;101306.55;;;5.18;51.49
78064;BME280;67429;51.596;-3.264;2023-02-28T11:22:54;101306.72;;;4.92;52.18
78064;BME280;67429;51.596;-3.264;2023-02-28T11:25:23;101303.59;;;5.33;51.53
78064;BME280;67429;51.596;-3.264;2023-02-28T11:27:47;101299.90;;;6.34;49.84
78064;BME280;67429;51.596;-3.264;2023-02-28T11:32:36;101301.00;;;4.01;53.95
78064;BME280;67429;51.596;-3.264;2023-02-28T11:35:10;101296.13;;;3.80;54.12
78064;BME280;67429;51.596;-3.264;2023-02-28T11:37:28;101292.65;;;3.93;53.97
78064;BME280;67429;51.596;-3.264;2023-02-28T11:39:53;101294.50;;;3.28;56.03
78064;BME280;67429;51.596;-3.264;2023-02-28T11:42:31;101288.70;;;4.07;55.07
78064;BME280;67429;51.596;-3.264;2023-02-28T11:45:01;101282.78;;;5.77;51.78
78064;BME280;67429;51.596;-3.264;2023-02-28T11:47:14;101282.86;;;5.05;51.62
78064;BME280;67429;51.596;-3.264;2023-02-28T11:49:43;101274.04;;;6.23;49.53
78064;BME280;67429;51.596;-3.264;2023-02-28T11:52:06;101273.56;;;6.38;47.96
78064;BME280;67429;51.596;-3.264;2023-02-28T11:54:35;101277.27;;;6.82;48.15
78064;BME280;67429;51.596;-3.264;2023-02-28T11:56:57;101275.57;;;5.70;47.67
78064;BME280;67429;51.596;-3.264;2023-02-28T11:59:41;101284.14;;;5.02;51.01
78064;BME280;67429;51.596;-3.264;2023-02-28T12:02:03;101279.39;;;5.48;50.82
78064;BME280;67429;51.596;-3.264;2023-02-28T12:04:18;101288.22;;;5.02;53.64
78064;BME280;67429;51.596;-3.264;2023-02-28T12:06:43;101281.41;;;3.29;58.62
78064;BME280;67429;51.596;-3.264;2023-02-28T12:09:13;101281.69;;;4.09;59.05
78064;BME280;67429;51.596;-3.264;2023-02-28T12:11:38;101287.40;;;3.93;58.03
78064;BME280;67429;51.596;-3.264;2023-02-28T12:14:02;101281.17;;;4.47;57.19
78064;BME280;67429;51.596;-3.264;2023-02-28T12:16:28;101286.02;;;4.76;55.66
78064;BME280;67429;51.596;-3.264;2023-02-28T12:18:57;101291.46;;;5.10;54.22
78064;BME280;67429;51.596;-3.264;2023-02-28T12:21:17;101282.01;;;5.43;54.21
78064;BME280;67429;51.596;-3.264;2023-02-28T12:23:52;101272.79;;;5.68;52.57
78064;BME280;67429;51.596;-3.264;2023-02-28T12:26:07;101267.70;;;4.74;54.94
78064;BME280;67429;51.596;-3.264;2023-02-28T12:28:31;101266.46;;;5.31;55.50
78064;BME280;67429;51.596;-3.264;2023-02-28T12:30:58;101258.79;;;6.26;52.21
78064;BME280;67429;51.596;-3.264;2023-02-28T12:33:22;101255.02;;;6.78;49.21
78064;BME280;67429;51.596;-3.264;2023-02-28T12:35:49;101253.47;;;6.23;50.04
78064;BME280;67429;51.596;-3.264;2023-02-28T12:38:14;101258.37;;;4.98;51.96
78064;BME280;67429;51.596;-3.264;2023-02-28T12:40:44;101249.75;;;5.59;52.40
78064;BME280;67429;51.596;-3.264;2023-02-28T12:43:04;101249.79;;;6.03;51.23
78064;BME280;67429;51.596;-3.264;2023-02-28T12:45:36;101246.65;;;5.62;50.69
78064;BME280;67429;51.596;-3.264;2023-02-28T12:47:59;101258.66;;;4.91;52.35
78064;BME280;67429;51.596;-3.264;2023-02-28T12:50:20;101247.04;;;4.23;52.57
78064;BME280;67429;51.596;-3.264;2023-02-28T12:52:51;101242.82;;;4.21;54.72
78064;BME280;67429;51.596;-3.264;2023-02-28T12:55:15;101235.85;;;5.12;53.08
78064;BME280;67429;51.596;-3.264;2023-02-28T12:57:38;101247.12;;;4.71;52.74